Time;durP1;ratioP1;P1;durP2;ratioP2;P2;SDS_P1;SDS_P2;PMS_P1;PMS_P2;Temp;Humidity;BMP_temperature;BMP_pressure;BME280_temperature;BME280_humidity;BME280_pressure;Samples;Min_cycle;Max_cycle;Signal;HPM_P1;HPM_P2
2022/06/25 00:01:43;;;;;;;21.08;16.27;;;;;;;;;;5035356;28;20048;-68
2022/06/25 00:05:27;;;;;;;20.20;17.20;;;;;;;;;;5033941;28;20485;-68
2022/06/25 00:06:55;;;;;;;24.58;18.50;;;;;;;;;;5032760;28;20037;-69
2022/06/25 00:09:21;;;;;;;22.92;18.27;;;;;;;;;;5040774;28;20410;-69
2022/06/25 00:14:32;;;;;;;22.67;19.90;;;;;;;;;;5040225;28;20028;-68
2022/06/25 00:16:58;;;;;;;24.48;20.05;;;;;;;;;;5028463;28;20487;-67
2022/06/25 00:19:24;;;;;;;25.15;19.75;;;;;;;;;;5039269;28;20121;-67
2022/06/25 00:21:50;;;;;;;25.10;19.45;;;;;;;;;;5029365;28;20464;-67
2022/06/25 00:24:17;;;;;;;23.90;20.08;;;;;;;;;;5036623;28;20108;-68
2022/06/25 00:26:44;;;;;;;23.52;19.27;;;;;;;;;;5026464;28;20031;-68
2022/06/25 00:29:10;;;;;;;25.02;21.08;;;;;;;;;;5031911;28;20546;-68
2022/06/25 00:31:36;;;;;;;25.75;21.10;;;;;;;;;;5032662;28;20025;-68
2022/06/25 00:34:03;;;;;;;25.25;20.50;;;;;;;;;;5033388;28;20021;-69
2022/06/25 00:36:29;;;;;;;27.70;21.05;;;;;;;;;;5028141;28;20053;-68
2022/06/25 00:38:55;;;;;;;25.05;21.48;;;;;;;;;;5037535;28;20422;-68
2022/06/25 00:41:21;;;;;;;25.42;19.65;;;;;;;;;;5036928;28;20029;-68
2022/06/25 00:43:48;;;;;;;28.23;21.15;;;;;;;;;;5039668;28;20029;-69
2022/06/25 00:46:14;;;;;;;30.08;21.15;;;;;;;;;;5028417;28;20501;-68
2022/06/25 00:48:40;;;;;;;29.10;21.27;;;;;;;;;;5031735;28;20478;-68
2022/06/25 00:51:10;;;;;;;34.47;21.10;;;;;;;;;;5034153;28;20121;-68
2022/06/25 00:53:36;;;;;;;24.52;19.33;;;;;;;;;;5026519;28;20021;-69
2022/06/25 00:56:07;;;;;;;24.17;20.13;;;;;;;;;;5031328;28;20037;-69
2022/06/25 00:58:34;;;;;;;26.55;20.83;;;;;;;;;;5032674;28;20056;-68
2022/06/25 01:01:03;;;;;;;27.60;21.55;;;;;;;;;;5030568;28;20044;-69
2022/06/25 01:03:29;;;;;;;26.50;21.52;;;;;;;;;;5038140;28;20340;-68
2022/06/25 01:05:55;;;;;;;25.17;20.60;;;;;;;;;;5013367;28;20120;-68
2022/06/25 01:08:22;;;;;;;26.35;20.52;;;;;;;;;;5034610;28;20057;-67
2022/06/25 01:10:48;;;;;;;28.95;21.55;;;;;;;;;;5031959;28;20029;-68
2022/06/25 01:13:14;;;;;;;26.13;21.00;;;;;;;;;;5037397;28;20025;-69
2022/06/25 01:15:40;;;;;;;28.60;22.23;;;;;;;;;;5036823;28;20128;-68
2022/06/25 01:18:07;;;;;;;25.52;21.67;;;;;;;;;;5031712;28;20438;-68
2022/06/25 01:20:34;;;;;;;26.20;22.02;;;;;;;;;;5028978;28;20037;-68
2022/06/25 01:23:00;;;;;;;26.20;20.65;;;;;;;;;;5032120;28;20189;-68
2022/06/25 01:25:33;;;;;;;25.83;20.80;;;;;;;;;;5032137;28;20124;-68
2022/06/25 01:27:59;;;;;;;27.52;19.90;;;;;;;;;;5030038;28;20029;-67
2022/06/25 01:30:25;;;;;;;26.90;19.48;;;;;;;;;;5027246;28;20037;-67
2022/06/25 01:32:52;;;;;;;21.38;18.70;;;;;;;;;;5036575;28;20434;-69
2022/06/25 01:35:18;;;;;;;22.33;17.90;;;;;;;;;;5030245;28;20034;-68
2022/06/25 01:37:44;;;;;;;21.42;17.73;;;;;;;;;;5028889;28;20017;-68
2022/06/25 01:40:10;;;;;;;20.67;17.30;;;;;;;;;;5034284;28;20040;-67
2022/06/25 01:45:22;;;;;;;27.63;17.85;;;;;;;;;;5027146;28;20382;-69
2022/06/25 01:47:48;;;;;;;24.40;17.35;;;;;;;;;;5042363;28;20070;-67
2022/06/25 01:50:15;;;;;;;23.00;18.42;;;;;;;;;;5038686;28;20056;-67
2022/06/25 01:52:43;;;;;;;23.73;17.35;;;;;;;;;;5036471;28;20120;-68
2022/06/25 01:55:27;;;;;;;22.45;18.23;;;;;;;;;;5012625;28;20161;-69
2022/06/25 01:57:53;;;;;;;22.98;17.85;;;;;;;;;;5014058;28;20178;-68
2022/06/25 02:00:21;;;;;;;29.48;18.60;;;;;;;;;;5016557;28;20108;-69
2022/06/25 02:02:47;;;;;;;26.15;18.40;;;;;;;;;;5013317;28;20514;-69
2022/06/25 02:05:14;;;;;;;26.40;19.75;;;;;;;;;;5013295;28;20056;-69
2022/06/25 02:07:40;;;;;;;24.83;18.52;;;;;;;;;;5014060;28;20526;-68
2022/06/25 02:10:07;;;;;;;29.10;17.25;;;;;;;;;;5011612;28;20033;-68
2022/06/25 02:12:33;;;;;;;22.80;16.83;;;;;;;;;;5014347;28;20091;-68
2022/06/25 02:14:59;;;;;;;20.23;16.10;;;;;;;;;;5017930;28;20037;-69
2022/06/25 02:17:25;;;;;;;22.17;15.80;;;;;;;;;;5020331;28;20124;-69
2022/06/25 02:19:51;;;;;;;19.42;15.07;;;;;;;;;;5008728;28;20018;-69
2022/06/25 02:22:17;;;;;;;18.98;15.60;;;;;;;;;;5009083;28;20072;-69
2022/06/25 02:24:44;;;;;;;22.67;16.02;;;;;;;;;;5023541;28;20140;-68
2022/06/25 02:27:10;;;;;;;22.92;16.83;;;;;;;;;;5029294;28;20033;-67
2022/06/25 02:29:36;;;;;;;24.63;18.92;;;;;;;;;;5042441;28;20041;-67
2022/06/25 02:32:03;;;;;;;27.15;19.10;;;;;;;;;;5034152;28;20032;-68
2022/06/25 02:34:29;;;;;;;26.65;19.77;;;;;;;;;;5044975;28;20029;-68
2022/06/25 02:36:55;;;;;;;32.58;20.73;;;;;;;;;;5041703;28;20415;-67
2022/06/25 02:39:21;;;;;;;34.10;22.73;;;;;;;;;;5040309;28;20033;-68
2022/06/25 02:41:47;;;;;;;34.30;22.67;;;;;;;;;;5034401;28;20029;-67
2022/06/25 02:44:13;;;;;;;32.83;23.10;;;;;;;;;;5034008;28;20029;-67
2022/06/25 02:46:39;;;;;;;36.05;22.10;;;;;;;;;;5037805;28;20041;-68
2022/06/25 02:49:06;;;;;;;32.35;23.15;;;;;;;;;;5038253;28;20079;-67
2022/06/25 02:51:32;;;;;;;33.65;23.65;;;;;;;;;;5031597;28;20124;-68
2022/06/25 02:53:58;;;;;;;37.58;22.73;;;;;;;;;;5035051;28;20033;-67
2022/06/25 02:59:08;;;;;;;33.85;22.90;;;;;;;;;;5036015;28;20053;-68
2022/06/25 03:01:35;;;;;;;30.25;21.75;;;;;;;;;;5032383;28;20053;-69
2022/06/25 03:04:01;;;;;;;30.63;21.10;;;;;;;;;;5037089;28;20025;-67
2022/06/25 03:06:27;;;;;;;27.67;20.75;;;;;;;;;;5030498;28;20036;-68
2022/06/25 03:08:54;;;;;;;30.45;19.42;;;;;;;;;;5039662;28;20078;-69
2022/06/25 03:11:20;;;;;;;25.27;18.42;;;;;;;;;;5029235;28;20434;-68
2022/06/25 03:13:46;;;;;;;22.30;18.25;;;;;;;;;;5043786;28;20033;-70
2022/06/25 03:16:12;;;;;;;21.85;17.08;;;;;;;;;;5038024;28;20037;-68
2022/06/25 03:18:39;;;;;;;20.52;16.67;;;;;;;;;;5031090;28;20113;-68
2022/06/25 03:21:05;;;;;;;25.35;15.95;;;;;;;;;;5031017;28;20021;-68
2022/06/25 03:23:31;;;;;;;19.83;14.52;;;;;;;;;;5033819;28;20108;-67
2022/06/25 03:25:57;;;;;;;21.65;13.52;;;;;;;;;;5031551;28;20509;-68
2022/06/25 03:28:23;;;;;;;20.90;12.27;;;;;;;;;;5036390;28;20037;-68
2022/06/25 03:30:49;;;;;;;19.10;13.52;;;;;;;;;;5034637;28;20037;-69
2022/06/25 03:33:15;;;;;;;20.48;12.13;;;;;;;;;;5032656;28;20033;-68
2022/06/25 03:35:42;;;;;;;24.08;11.95;;;;;;;;;;5028814;28;20052;-68
2022/06/25 03:38:08;;;;;;;18.60;11.75;;;;;;;;;;5035747;28;20032;-68
2022/06/25 03:40:34;;;;;;;15.98;10.77;;;;;;;;;;5035530;28;20078;-67
2022/06/25 03:43:00;;;;;;;19.02;11.68;;;;;;;;;;5035981;28;20033;-68
2022/06/25 03:45:26;;;;;;;15.90;10.60;;;;;;;;;;5036513;28;20485;-68
2022/06/25 03:47:53;;;;;;;15.13;9.82;;;;;;;;;;5032996;28;20062;-67
2022/06/25 03:50:19;;;;;;;12.25;9.88;;;;;;;;;;5029622;28;20091;-68
2022/06/25 03:52:46;;;;;;;11.63;9.02;;;;;;;;;;5041254;28;20037;-68
2022/06/25 03:55:12;;;;;;;15.40;9.98;;;;;;;;;;5043316;28;20055;-67
2022/06/25 03:57:38;;;;;;;16.10;9.60;;;;;;;;;;5029865;28;20061;-68
2022/06/25 04:00:06;;;;;;;16.23;10.20;;;;;;;;;;5034880;28;20029;-67
2022/06/25 04:02:32;;;;;;;13.50;9.32;;;;;;;;;;5032865;28;20799;-68
2022/06/25 04:04:58;;;;;;;15.93;9.07;;;;;;;;;;5034135;28;20040;-69
2022/06/25 04:07:24;;;;;;;15.45;9.40;;;;;;;;;;5030704;28;20045;-69
2022/06/25 04:09:50;;;;;;;15.07;9.23;;;;;;;;;;5030304;28;20033;-69
2022/06/25 04:12:16;;;;;;;14.50;8.80;;;;;;;;;;5035610;28;20040;-68
2022/06/25 04:14:43;;;;;;;12.75;8.65;;;;;;;;;;5036003;28;20037;-69
2022/06/25 04:17:09;;;;;;;13.13;8.45;;;;;;;;;;5030645;28;20030;-68
2022/06/25 04:19:40;;;;;;;15.77;8.50;;;;;;;;;;5030412;28;20116;-67
2022/06/25 04:22:07;;;;;;;12.23;7.88;;;;;;;;;;5035233;28;20074;-68
2022/06/25 04:24:33;;;;;;;13.13;7.65;;;;;;;;;;5031894;28;20039;-66
2022/06/25 04:26:59;;;;;;;13.60;6.97;;;;;;;;;;5027230;28;20059;-68
2022/06/25 04:29:25;;;;;;;10.93;6.90;;;;;;;;;;5031212;28;20025;-67
2022/06/25 04:31:51;;;;;;;15.32;7.82;;;;;;;;;;5031472;28;20083;-67
2022/06/25 04:34:17;;;;;;;9.50;6.82;;;;;;;;;;5032200;28;20471;-67
2022/06/25 04:36:43;;;;;;;11.50;6.43;;;;;;;;;;5030226;28;20123;-67
2022/06/25 04:39:09;;;;;;;8.65;5.65;;;;;;;;;;5037235;28;20095;-68
2022/06/25 04:41:35;;;;;;;9.25;4.93;;;;;;;;;;5027504;28;20055;-68
2022/06/25 04:44:01;;;;;;;10.70;4.43;;;;;;;;;;5033255;28;20029;-69
2022/06/25 04:46:31;;;;;;;9.48;4.45;;;;;;;;;;5032368;28;20034;-68
2022/06/25 04:48:57;;;;;;;6.57;3.60;;;;;;;;;;5032222;28;20025;-67
2022/06/25 04:51:24;;;;;;;9.65;3.60;;;;;;;;;;5027944;28;20092;-68
2022/06/25 04:53:56;;;;;;;8.90;3.55;;;;;;;;;;5035026;28;20060;-69
2022/06/25 04:56:31;;;;;;;7.78;3.50;;;;;;;;;;5026552;28;20048;-68
2022/06/25 04:58:58;;;;;;;5.20;3.20;;;;;;;;;;5034806;28;20032;-67
2022/06/25 05:01:24;;;;;;;10.95;3.60;;;;;;;;;;5034965;28;20058;-68
2022/06/25 05:03:50;;;;;;;6.57;3.20;;;;;;;;;;5034365;28;20067;-68
2022/06/25 05:06:16;;;;;;;7.78;3.28;;;;;;;;;;5031189;28;20033;-68
2022/06/25 05:08:42;;;;;;;7.30;3.13;;;;;;;;;;5034121;28;20486;-68
2022/06/25 05:11:08;;;;;;;9.45;3.60;;;;;;;;;;5034488;28;20082;-68
2022/06/25 05:13:34;;;;;;;6.75;2.97;;;;;;;;;;5043169;28;20125;-68
2022/06/25 05:16:01;;;;;;;10.75;3.33;;;;;;;;;;5036158;28;20044;-68
2022/06/25 05:18:27;;;;;;;7.47;3.67;;;;;;;;;;5036065;28;20034;-68
2022/06/25 05:20:53;;;;;;;7.65;3.50;;;;;;;;;;5034559;28;20057;-68
2022/06/25 05:23:20;;;;;;;8.68;3.30;;;;;;;;;;5045211;28;20028;-67
2022/06/25 05:25:46;;;;;;;5.82;3.22;;;;;;;;;;5030348;28;20029;-68
2022/06/25 05:28:12;;;;;;;6.07;3.22;;;;;;;;;;5044007;28;20041;-69
2022/06/25 05:30:38;;;;;;;8.32;3.60;;;;;;;;;;5036046;28;20045;-68
2022/06/25 05:33:04;;;;;;;7.78;3.95;;;;;;;;;;5040108;28;20037;-67
2022/06/25 05:35:30;;;;;;;6.30;3.85;;;;;;;;;;5038524;28;20120;-68
2022/06/25 05:37:56;;;;;;;10.70;3.75;;;;;;;;;;5042597;28;20030;-68
2022/06/25 05:40:22;;;;;;;9.85;4.05;;;;;;;;;;5036634;28;20030;-69
2022/06/25 05:42:48;;;;;;;9.57;3.65;;;;;;;;;;5039683;28;20116;-68
2022/06/25 05:45:14;;;;;;;7.68;3.88;;;;;;;;;;5033301;28;20186;-72
2022/06/25 05:47:41;;;;;;;9.13;3.63;;;;;;;;;;5045459;28;20609;-74
2022/06/25 05:50:07;;;;;;;11.00;3.42;;;;;;;;;;5040834;28;20057;-73
2022/06/25 05:52:33;;;;;;;7.10;3.67;;;;;;;;;;5038524;28;20036;-74
2022/06/25 05:54:59;;;;;;;11.35;3.90;;;;;;;;;;5039780;28;20038;-74
2022/06/25 05:57:25;;;;;;;6.63;3.50;;;;;;;;;;5035735;28;20513;-72
2022/06/25 05:59:51;;;;;;;11.98;3.40;;;;;;;;;;5044832;28;20030;-75
2022/06/25 06:02:17;;;;;;;11.65;3.75;;;;;;;;;;5041044;28;20068;-75
2022/06/25 06:04:43;;;;;;;11.05;3.40;;;;;;;;;;5034623;28;20568;-74
2022/06/25 06:07:09;;;;;;;8.40;3.63;;;;;;;;;;5038242;28;20021;-73
2022/06/25 06:09:36;;;;;;;10.73;3.83;;;;;;;;;;5026835;28;20112;-74
2022/06/25 06:12:02;;;;;;;6.63;3.45;;;;;;;;;;5035550;28;20036;-73
2022/06/25 06:14:28;;;;;;;6.05;3.58;;;;;;;;;;5036261;28;20033;-73
2022/06/25 06:16:56;;;;;;;12.45;3.90;;;;;;;;;;5029318;28;20152;-72
2022/06/25 06:19:22;;;;;;;10.30;3.65;;;;;;;;;;5037738;28;20024;-74
2022/06/25 06:21:48;;;;;;;10.02;3.63;;;;;;;;;;5035267;28;20087;-74
2022/06/25 06:24:14;;;;;;;8.85;3.63;;;;;;;;;;5036422;28;20028;-74
2022/06/25 06:26:40;;;;;;;12.80;3.70;;;;;;;;;;5031970;28;20083;-72
2022/06/25 06:29:06;;;;;;;7.40;2.97;;;;;;;;;;5035291;28;20044;-74
2022/06/25 06:31:32;;;;;;;13.07;3.53;;;;;;;;;;5042082;28;20040;-75
2022/06/25 06:33:58;;;;;;;6.53;3.03;;;;;;;;;;5034957;28;20072;-75
2022/06/25 06:36:24;;;;;;;9.60;3.65;;;;;;;;;;5037017;28;20021;-74
2022/06/25 06:38:50;;;;;;;13.65;3.80;;;;;;;;;;5032739;28;20095;-77
2022/06/25 06:41:19;;;;;;;6.88;3.22;;;;;;;;;;5049350;28;20681;-74
2022/06/25 06:43:46;;;;;;;10.10;3.38;;;;;;;;;;5039350;28;20053;-75
2022/06/25 06:46:15;;;;;;;10.77;3.33;;;;;;;;;;5032062;28;20108;-73
2022/06/25 06:48:41;;;;;;;7.70;3.33;;;;;;;;;;5037608;28;20037;-72
2022/06/25 06:51:07;;;;;;;10.07;3.35;;;;;;;;;;5038939;28;20028;-76
2022/06/25 06:53:34;;;;;;;8.00;3.95;;;;;;;;;;5036202;28;20057;-75
2022/06/25 06:56:01;;;;;;;6.85;3.42;;;;;;;;;;5042199;28;20041;-76
2022/06/25 06:58:27;;;;;;;8.13;2.92;;;;;;;;;;5042439;28;20499;-74
2022/06/25 07:00:53;;;;;;;11.52;3.15;;;;;;;;;;5041692;28;20021;-74
2022/06/25 07:03:20;;;;;;;8.05;3.50;;;;;;;;;;5044471;28;20324;-73
2022/06/25 07:05:46;;;;;;;11.80;4.05;;;;;;;;;;5038461;28;20109;-77
2022/06/25 07:08:12;;;;;;;10.23;3.88;;;;;;;;;;5035322;28;20029;-76
2022/06/25 07:10:38;;;;;;;10.20;3.50;;;;;;;;;;5038909;28;20140;-75
2022/06/25 07:13:04;;;;;;;9.98;4.05;;;;;;;;;;5021547;28;20488;-75
2022/06/25 07:15:30;;;;;;;9.15;3.60;;;;;;;;;;5021560;28;20056;-75
2022/06/25 07:17:56;;;;;;;7.55;3.67;;;;;;;;;;5032842;28;20120;-75
2022/06/25 07:20:22;;;;;;;9.15;4.32;;;;;;;;;;5030190;28;20033;-74
2022/06/25 07:22:48;;;;;;;8.48;3.92;;;;;;;;;;5029632;28;20056;-76
2022/06/25 07:25:14;;;;;;;7.50;4.22;;;;;;;;;;5011952;28;20041;-76
2022/06/25 07:27:43;;;;;;;7.90;3.88;;;;;;;;;;5025477;28;20025;-76
2022/06/25 07:30:10;;;;;;;9.35;5.00;;;;;;;;;;5042138;28;20025;-75
2022/06/25 07:32:36;;;;;;;13.00;4.95;;;;;;;;;;5027279;28;20029;-75
2022/06/25 07:35:02;;;;;;;13.50;5.00;;;;;;;;;;5029521;28;20052;-76
2022/06/25 07:37:28;;;;;;;11.18;5.10;;;;;;;;;;5026928;28;20038;-74
2022/06/25 07:39:54;;;;;;;13.57;5.47;;;;;;;;;;5030225;28;20026;-75
2022/06/25 07:42:20;;;;;;;10.13;5.00;;;;;;;;;;5029131;28;20329;-75
2022/06/25 07:44:46;;;;;;;10.55;5.32;;;;;;;;;;5012582;28;20037;-75
2022/06/25 07:47:12;;;;;;;9.93;5.30;;;;;;;;;;5022893;28;20029;-74
2022/06/25 07:52:23;;;;;;;11.90;5.30;;;;;;;;;;5029559;28;20041;-76
2022/06/25 07:54:49;;;;;;;10.05;4.70;;;;;;;;;;5029764;28;20025;-74
2022/06/25 07:57:16;;;;;;;14.82;4.82;;;;;;;;;;5027943;28;20044;-72
2022/06/25 07:59:42;;;;;;;11.85;4.95;;;;;;;;;;5023918;28;20033;-74
2022/06/25 08:02:08;;;;;;;12.63;4.53;;;;;;;;;;5024207;28;20514;-74
2022/06/25 08:04:35;;;;;;;6.85;4.20;;;;;;;;;;5029139;28;20424;-75
2022/06/25 08:07:01;;;;;;;9.38;4.63;;;;;;;;;;5030133;28;20074;-75
2022/06/25 08:09:27;;;;;;;6.82;4.45;;;;;;;;;;5028108;28;20048;-74
2022/06/25 08:11:53;;;;;;;9.50;3.80;;;;;;;;;;5025232;28;20025;-75
2022/06/25 08:14:19;;;;;;;12.18;3.97;;;;;;;;;;5028755;28;20476;-73
2022/06/25 08:16:45;;;;;;;15.73;3.83;;;;;;;;;;5028839;28;20063;-75
2022/06/25 08:19:12;;;;;;;10.10;4.35;;;;;;;;;;5026949;28;20108;-76
2022/06/25 08:21:38;;;;;;;9.68;4.82;;;;;;;;;;5009171;28;20041;-75
2022/06/25 08:24:05;;;;;;;13.23;5.50;;;;;;;;;;5026705;28;20030;-75
2022/06/25 08:26:31;;;;;;;15.98;4.55;;;;;;;;;;5027834;28;20041;-74
2022/06/25 08:28:57;;;;;;;9.05;4.63;;;;;;;;;;5026955;28;20041;-73
2022/06/25 08:31:24;;;;;;;12.65;4.95;;;;;;;;;;5026711;28;20034;-73
2022/06/25 08:33:50;;;;;;;16.00;5.38;;;;;;;;;;5028394;28;20033;-74
2022/06/25 08:36:16;;;;;;;13.23;4.72;;;;;;;;;;5020505;28;20021;-74
2022/06/25 08:38:42;;;;;;;16.30;5.50;;;;;;;;;;5026874;28;20029;-77
2022/06/25 08:41:08;;;;;;;17.10;5.90;;;;;;;;;;5027228;28;20235;-74
2022/06/25 08:43:36;;;;;;;11.57;4.65;;;;;;;;;;5011949;28;20040;-73
2022/06/25 08:46:03;;;;;;;12.30;4.75;;;;;;;;;;5026034;28;20029;-75
2022/06/25 08:48:33;;;;;;;15.68;5.32;;;;;;;;;;5023693;28;20033;-75
2022/06/25 08:50:59;;;;;;;9.80;5.57;;;;;;;;;;5023133;28;20029;-74
2022/06/25 08:53:29;;;;;;;13.80;6.35;;;;;;;;;;5027864;28;20091;-75
2022/06/25 08:55:55;;;;;;;11.60;6.10;;;;;;;;;;5028640;28;20065;-74
2022/06/25 08:58:21;;;;;;;11.43;6.32;;;;;;;;;;5026538;28;20311;-74
2022/06/25 09:00:47;;;;;;;9.63;5.05;;;;;;;;;;5025454;28;20025;-73
2022/06/25 09:03:14;;;;;;;9.02;4.75;;;;;;;;;;5027151;28;20388;-73
2022/06/25 09:05:42;;;;;;;13.55;5.03;;;;;;;;;;5025575;28;20203;-74
2022/06/25 09:08:09;;;;;;;14.43;6.07;;;;;;;;;;5030912;28;20083;-73
2022/06/25 09:10:36;;;;;;;13.32;5.50;;;;;;;;;;5047395;28;20037;-73
2022/06/25 09:13:04;;;;;;;8.98;4.78;;;;;;;;;;5029503;28;20390;-73
2022/06/25 09:15:34;;;;;;;9.45;3.53;;;;;;;;;;5026131;28;20033;-72
2022/06/25 09:18:11;;;;;;;10.40;3.70;;;;;;;;;;5031117;28;20056;-76
2022/06/25 09:20:54;;;;;;;9.07;3.92;;;;;;;;;;5034047;28;20487;-74
2022/06/25 09:23:21;;;;;;;10.93;3.53;;;;;;;;;;5034748;28;20024;-74
2022/06/25 09:25:59;;;;;;;8.45;4.03;;;;;;;;;;5032459;28;20518;-75
2022/06/25 09:28:30;;;;;;;9.18;4.50;;;;;;;;;;5033698;28;20124;-74
2022/06/25 09:30:56;;;;;;;7.55;4.15;;;;;;;;;;5034640;28;20509;-74
2022/06/25 09:33:22;;;;;;;9.38;3.92;;;;;;;;;;5032031;28;20068;-73
2022/06/25 09:35:50;;;;;;;9.25;4.15;;;;;;;;;;5034537;28;20037;-74
2022/06/25 09:38:17;;;;;;;7.68;3.92;;;;;;;;;;5033692;28;20014;-73
2022/06/25 09:40:54;;;;;;;10.45;4.53;;;;;;;;;;5033948;28;20034;-72
2022/06/25 09:43:25;;;;;;;12.35;4.85;;;;;;;;;;5034260;28;20040;-74
2022/06/25 09:45:54;;;;;;;10.13;5.28;;;;;;;;;;5033509;28;20483;-74
2022/06/25 09:48:21;;;;;;;8.82;5.15;;;;;;;;;;5034303;28;20095;-75
2022/06/25 09:51:06;;;;;;;9.52;4.95;;;;;;;;;;5031772;28;20108;-73
2022/06/25 09:53:33;;;;;;;12.32;5.65;;;;;;;;;;5023472;28;20029;-74
2022/06/25 09:55:59;;;;;;;8.27;5.60;;;;;;;;;;5030239;28;20014;-73
2022/06/25 09:58:26;;;;;;;12.13;5.63;;;;;;;;;;5028067;28;20037;-73
2022/06/25 10:00:53;;;;;;;8.65;4.78;;;;;;;;;;5032836;28;20125;-73
2022/06/25 10:03:20;;;;;;;10.90;6.25;;;;;;;;;;5035874;28;20045;-73
2022/06/25 10:05:47;;;;;;;10.00;6.13;;;;;;;;;;5032268;28;20037;-73
2022/06/25 10:08:15;;;;;;;13.20;6.40;;;;;;;;;;5035483;28;20072;-73
2022/06/25 10:10:43;;;;;;;10.15;6.05;;;;;;;;;;5031383;28;20036;-73
2022/06/25 10:13:09;;;;;;;14.77;5.72;;;;;;;;;;5035175;28;20063;-72
2022/06/25 10:15:37;;;;;;;11.05;5.82;;;;;;;;;;5031932;28;20033;-74
2022/06/25 10:18:04;;;;;;;11.68;6.55;;;;;;;;;;5032525;28;20498;-75
2022/06/25 10:20:31;;;;;;;10.23;6.20;;;;;;;;;;5028810;28;20022;-75
2022/06/25 10:22:58;;;;;;;12.07;6.13;;;;;;;;;;5027445;28;20029;-74
2022/06/25 10:25:25;;;;;;;11.20;6.18;;;;;;;;;;5029084;28;20054;-76
2022/06/25 10:28:03;;;;;;;8.98;5.95;;;;;;;;;;5020404;28;20037;-74
2022/06/25 10:30:36;;;;;;;12.80;6.32;;;;;;;;;;5026413;28;20053;-75
2022/06/25 10:33:02;;;;;;;13.00;5.97;;;;;;;;;;5017572;28;20025;-72
2022/06/25 10:35:28;;;;;;;11.65;6.25;;;;;;;;;;5031819;28;20248;-74
2022/06/25 10:38:24;;;;;;;9.07;4.78;;;;;;;;;;5024472;28;20025;-74
2022/06/25 10:40:57;;;;;;;7.25;4.50;;;;;;;;;;5018266;28;20581;-74
2022/06/25 10:43:36;;;;;;;10.45;4.82;;;;;;;;;;5033645;28;20017;-74
2022/06/25 10:46:21;;;;;;;13.18;5.30;;;;;;;;;;5036059;28;20044;-74
2022/06/25 10:48:56;;;;;;;13.50;5.70;;;;;;;;;;5031079;28;20060;-73
2022/06/25 10:51:29;;;;;;;14.40;5.70;;;;;;;;;;5035655;28;20116;-75
2022/06/25 10:53:55;;;;;;;10.75;5.13;;;;;;;;;;5036837;28;20033;-74
2022/06/25 10:56:21;;;;;;;11.50;5.63;;;;;;;;;;5035117;28;20116;-74
2022/06/25 10:58:48;;;;;;;13.73;6.30;;;;;;;;;;5035926;28;20340;-75
2022/06/25 11:01:26;;;;;;;22.63;5.45;;;;;;;;;;5036794;28;20009;-75
2022/06/25 11:03:57;;;;;;;10.73;4.95;;;;;;;;;;5034718;28;20053;-73
2022/06/25 11:06:24;;;;;;;12.38;5.22;;;;;;;;;;5033067;28;20022;-75
2022/06/25 11:08:51;;;;;;;9.43;4.25;;;;;;;;;;5032581;28;20059;-74
2022/06/25 11:11:30;;;;;;;8.40;4.50;;;;;;;;;;5031360;28;20029;-74
2022/06/25 11:14:00;;;;;;;10.90;5.00;;;;;;;;;;5031365;28;20029;-74
2022/06/25 11:16:26;;;;;;;12.32;4.82;;;;;;;;;;5032852;28;20030;-75
2022/06/25 11:18:53;;;;;;;12.57;5.03;;;;;;;;;;5032695;28;20471;-75
2022/06/25 11:21:26;;;;;;;9.25;4.97;;;;;;;;;;5031155;28;20064;-76
2022/06/25 11:23:53;;;;;;;15.68;5.20;;;;;;;;;;5033442;28;20028;-76
2022/06/25 11:29:04;;;;;;;16.17;7.10;;;;;;;;;;5033295;28;20043;-76
2022/06/25 11:31:34;;;;;;;11.02;6.45;;;;;;;;;;5032583;28;20029;-77
2022/06/25 11:34:02;;;;;;;11.45;6.93;;;;;;;;;;5035134;28;20053;-76
2022/06/25 11:36:28;;;;;;;9.95;6.65;;;;;;;;;;5035060;28;20033;-74
2022/06/25 11:38:55;;;;;;;9.75;6.63;;;;;;;;;;5027134;28;20033;-75
2022/06/25 11:41:21;;;;;;;10.35;6.53;;;;;;;;;;5028292;28;20431;-76
2022/06/25 11:43:47;;;;;;;12.55;6.82;;;;;;;;;;5031583;28;20025;-76
2022/06/25 11:46:18;;;;;;;19.05;7.28;;;;;;;;;;5022910;28;20033;-76
2022/06/25 11:48:46;;;;;;;14.55;7.30;;;;;;;;;;5027981;28;20030;-76
2022/06/25 11:51:13;;;;;;;10.93;7.15;;;;;;;;;;5032863;28;20052;-76
2022/06/25 11:53:40;;;;;;;12.60;6.50;;;;;;;;;;5029575;28;20099;-76
2022/06/25 11:56:06;;;;;;;13.23;7.13;;;;;;;;;;5024913;28;20033;-74
2022/06/25 11:58:33;;;;;;;12.75;6.57;;;;;;;;;;5026920;28;20140;-76
2022/06/25 12:01:04;;;;;;;13.50;7.20;;;;;;;;;;5024343;28;20335;-76
2022/06/25 12:03:31;;;;;;;34.30;9.43;;;;;;;;;;5023064;28;20041;-77
2022/06/25 12:05:58;;;;;;;12.38;7.28;;;;;;;;;;5026436;28;20052;-74
2022/06/25 12:08:24;;;;;;;11.70;7.53;;;;;;;;;;5029952;28;20546;-75
2022/06/25 12:10:51;;;;;;;12.63;6.80;;;;;;;;;;5029979;28;20033;-77
2022/06/25 12:13:20;;;;;;;13.25;7.38;;;;;;;;;;5029270;28;20053;-75
2022/06/25 12:15:46;;;;;;;10.73;7.18;;;;;;;;;;5029685;28;20065;-76
2022/06/25 12:18:12;;;;;;;9.20;7.05;;;;;;;;;;5033631;28;20032;-74
2022/06/25 12:20:54;;;;;;;11.10;6.20;;;;;;;;;;5029513;28;20037;-78
2022/06/25 12:23:20;;;;;;;9.77;7.22;;;;;;;;;;5031524;28;20196;-76
2022/06/25 12:25:47;;;;;;;11.80;6.78;;;;;;;;;;5026239;28;20388;-76
2022/06/25 12:28:14;;;;;;;11.63;6.95;;;;;;;;;;5034580;28;20026;-75
2022/06/25 12:30:40;;;;;;;9.43;7.13;;;;;;;;;;5032686;28;20033;-75
2022/06/25 12:33:09;;;;;;;8.65;6.50;;;;;;;;;;5032593;28;20506;-74
2022/06/25 12:35:40;;;;;;;6.80;5.77;;;;;;;;;;5036045;28;20029;-76
2022/06/25 12:38:06;;;;;;;9.27;6.80;;;;;;;;;;5036516;28;20029;-75
2022/06/25 12:40:38;;;;;;;12.93;7.20;;;;;;;;;;5032478;28;20091;-75
2022/06/25 12:43:06;;;;;;;9.18;6.72;;;;;;;;;;5035495;28;20025;-75
2022/06/25 12:45:32;;;;;;;10.48;5.93;;;;;;;;;;5033368;28;20052;-75
2022/06/25 12:47:58;;;;;;;9.57;6.65;;;;;;;;;;5035632;28;20044;-74
2022/06/25 12:50:29;;;;;;;9.25;6.47;;;;;;;;;;5052042;28;20424;-75
2022/06/25 12:52:56;;;;;;;9.88;6.13;;;;;;;;;;5034921;28;20513;-75
2022/06/25 12:55:25;;;;;;;8.13;6.03;;;;;;;;;;5037548;28;20049;-75
2022/06/25 12:57:51;;;;;;;11.27;7.10;;;;;;;;;;5038660;28;20044;-76
2022/06/25 13:00:18;;;;;;;9.55;6.95;;;;;;;;;;5037346;28;20399;-77
2022/06/25 13:02:44;;;;;;;13.02;6.25;;;;;;;;;;5040179;28;20077;-77
2022/06/25 13:05:11;;;;;;;9.50;5.80;;;;;;;;;;5057207;28;20037;-78
2022/06/25 13:07:38;;;;;;;8.13;5.68;;;;;;;;;;5043200;28;20044;-77
2022/06/25 13:10:04;;;;;;;7.72;5.78;;;;;;;;;;5042605;28;20443;-77
2022/06/25 13:12:30;;;;;;;9.63;5.47;;;;;;;;;;5042917;28;20022;-78
2022/06/25 13:14:57;;;;;;;7.63;4.70;;;;;;;;;;5058151;28;20049;-77
2022/06/25 13:17:23;;;;;;;6.82;4.45;;;;;;;;;;5041870;28;20053;-78
2022/06/25 13:19:49;;;;;;;6.95;4.18;;;;;;;;;;5037092;28;20022;-77
2022/06/25 13:22:15;;;;;;;5.47;4.00;;;;;;;;;;5037683;28;20013;-78
2022/06/25 13:24:42;;;;;;;6.70;4.40;;;;;;;;;;5038580;28;20033;-77
2022/06/25 13:27:08;;;;;;;6.18;5.00;;;;;;;;;;5033969;28;20040;-78
2022/06/25 13:29:34;;;;;;;7.07;4.20;;;;;;;;;;5031958;28;20568;-78
2022/06/25 13:32:00;;;;;;;6.32;4.10;;;;;;;;;;5032454;28;20033;-78
2022/06/25 13:34:27;;;;;;;10.25;4.68;;;;;;;;;;5039199;28;20475;-79
2022/06/25 13:36:53;;;;;;;7.07;4.43;;;;;;;;;;5056252;28;20557;-78
2022/06/25 13:39:19;;;;;;;8.57;4.72;;;;;;;;;;5040632;28;20030;-78
2022/06/25 13:41:45;;;;;;;4.90;4.40;;;;;;;;;;5035260;28;20026;-78
2022/06/25 13:44:12;;;;;;;8.40;4.07;;;;;;;;;;5033128;28;20075;-78
2022/06/25 13:46:38;;;;;;;7.60;4.45;;;;;;;;;;5030638;28;20484;-78
2022/06/25 13:49:04;;;;;;;5.85;3.10;;;;;;;;;;5034135;28;20037;-76
2022/06/25 13:51:30;;;;;;;4.95;3.05;;;;;;;;;;5030258;28;20037;-77
2022/06/25 13:53:56;;;;;;;7.55;2.67;;;;;;;;;;5032236;28;20041;-79
2022/06/25 13:56:23;;;;;;;4.80;3.20;;;;;;;;;;5009264;28;20037;-77
2022/06/25 13:58:49;;;;;;;5.25;3.35;;;;;;;;;;5028521;28;20026;-78
2022/06/25 14:01:15;;;;;;;5.25;3.58;;;;;;;;;;5031109;28;20079;-77
2022/06/25 14:03:43;;;;;;;8.68;3.92;;;;;;;;;;5028749;28;20058;-78
2022/06/25 14:06:09;;;;;;;4.10;2.97;;;;;;;;;;5030374;28;20036;-76
2022/06/25 14:08:35;;;;;;;6.07;3.20;;;;;;;;;;5030705;28;20029;-77
2022/06/25 14:11:01;;;;;;;6.78;2.80;;;;;;;;;;5031802;28;20025;-79
2022/06/25 14:13:27;;;;;;;4.88;3.00;;;;;;;;;;5032522;28;20111;-78
2022/06/25 14:15:53;;;;;;;3.95;2.58;;;;;;;;;;5028812;28;20119;-79
2022/06/25 14:18:20;;;;;;;3.75;2.60;;;;;;;;;;5030953;28;20025;-77
2022/06/25 14:20:46;;;;;;;4.40;2.88;;;;;;;;;;5021348;28;20398;-79
2022/06/25 14:23:12;;;;;;;4.70;2.95;;;;;;;;;;5028823;28;20107;-77
2022/06/25 14:25:38;;;;;;;6.60;3.00;;;;;;;;;;5012744;28;20417;-78
2022/06/25 14:28:04;;;;;;;7.47;3.40;;;;;;;;;;5029167;28;20034;-77
2022/06/25 14:30:34;;;;;;;6.35;3.50;;;;;;;;;;5029533;28;20053;-78
2022/06/25 14:33:01;;;;;;;4.32;2.88;;;;;;;;;;5032540;28;20033;-79
2022/06/25 14:35:27;;;;;;;6.38;3.47;;;;;;;;;;5028226;28;20040;-79
2022/06/25 14:43:07;;;;;;;7.25;3.55;;;;;;;;;;5029155;28;20034;-78
2022/06/25 14:45:33;;;;;;;6.50;3.47;;;;;;;;;;5028995;28;20049;-78
2022/06/25 14:47:59;;;;;;;5.22;3.70;;;;;;;;;;5028228;28;20033;-77
2022/06/25 14:50:25;;;;;;;5.97;3.47;;;;;;;;;;5030892;28;20021;-77